This demonstration page uses our WeatherBlox Daily Observations layout. Learn more.

38.88101, -77.10428

Hourly Observations for April 17, 2018

Temp ( °F °C ) Dew Point ( °F °C ) Humidity (%) Winds ( mph kmh ) Pressure ( in mb ) Visibility ( mi km ) Precip ( " mm )
12:52 am 00:52 Cloudy 45 7.2 27 -2.8 49 49 NW 15 24 29.77 1008 10 16.0934 0 0
1:52 am 01:52 Cloudy 44 6.7 24 -4.4 45 45 NW 15 24 29.79 1009 10 16.0934 0 0
2:52 am 02:52 Mostly Cloudy 43 6.1 23 -5 45 45 WNW 13 20 29.8 1009 10 16.0934 0 0
3:52 am 03:52 Cloudy 42 5.6 23 -5 47 47 WNW 15 24 29.8 1009 10 16.0934 0 0
4:52 am 04:52 Mostly Cloudy 41 5 22 -5.6 47 47 W 10 17 29.8 1009 10 16.0934 0 0
5:52 am 05:52 Mostly Cloudy 41 5 23 -5 49 49 WNW 14 22 29.8 1009 10 16.0934 0 0
6:52 am 06:52 Mostly Cloudy 41 5 22 -5.6 47 47 WNW 15 24 29.81 1010 10 16.0934 0 0
7:52 am 07:52 Mostly Cloudy 42 5.6 23 -5 47 47 W 10 17 29.83 1010 10 16.0934 0 0
8:52 am 08:52 Cloudy 42 5.6 23 -5 47 47 W 15 24 29.85 1011 10 16.0934 0 0
9:52 am 09:52 Cloudy 42 5.6 23 -5 47 47 W 16 26 29.85 1011 10 16.0934 0 0
10:52 am 10:52 Cloudy 45 7.2 25 -3.9 46 46 W 10 17 29.84 1010 10 16.0934 0 0
11:52 am 11:52 Cloudy 44 6.7 24 -4.4 45 45 WSW 13 20 29.83 1010 10 16.0934 0 0
12:52 pm 12:52 Cloudy 45 7.2 25 -3.9 46 46 WSW 13 20 29.8 1009 10 16.0934 0 0
1:52 pm 13:52 Cloudy 46 7.8 24 -4.4 42 42 WSW 15 24 29.78 1009 10 16.0934 0 0
2:52 pm 14:52 Cloudy 47 8.3 23 -5 39 39 W 17 28 29.77 1008 10 16.0934 0 0
3:52 pm 15:52 Cloudy 47 8.3 23 -5 39 39 W 14 22 29.77 1008 10 16.0934 0 0
4:52 pm 16:52 Cloudy 48 8.9 23 -5 37 37 NW 14 22 29.77 1008 10 16.0934 0 0
5:52 pm 17:52 Cloudy 47 8.3 24 -4.4 41 41 NW 14 22 29.78 1009 10 16.0934 0 0
6:52 pm 18:52 Cloudy 47 8.3 24 -4.4 41 41 WNW 8 13 29.79 1009 10 16.0934 0 0
7:52 pm 19:52 Cloudy 47 8.3 24 -4.4 41 41 NW 13 20 29.81 1009 10 16.0934 0 0
8:52 pm 20:52 Cloudy 46 7.8 24 -4.4 42 42 NW 14 22 29.84 1010 10 16.0934 0 0
9:52 pm 21:52 Cloudy 45 7.2 24 -4.4 44 44 NW 14 22 29.86 1011 10 16.0934 0 0
10:52 pm 22:52 Mostly Cloudy 43 6.1 21 -6.1 42 42 NW 15 24 29.88 1012 10 16.0934 0 0
11:52 pm 23:52 Mostly Clear 41 5 21 -6.1 45 45 NNW 9 15 29.89 1012 10 16.0934 0 0

Powered by AerisWeather